Time;durP1;ratioP1;P1;durP2;ratioP2;P2;SDS_P1;SDS_P2;PMS_P1;PMS_P2;Temp;Humidity;BMP_temperature;BMP_pressure;BME280_temperature;BME280_humidity;BME280_pressure;Samples;Min_cycle;Max_cycle;Signal;HPM_P1;HPM_P2
2024/03/09 00:00:38;;;;;;;2.92;1.10;;;;;;;12.20;100.00;101444.06;10499711;28;20457;-78
2024/03/09 00:06:01;;;;;;;1.67;1.15;;;;;;;12.35;100.00;101441.69;10476478;28;20127;-79
2024/03/09 00:11:25;;;;;;;3.78;1.20;;;;;;;12.44;100.00;101433.03;10498363;28;20048;-79
2024/03/09 00:16:50;;;;;;;6.07;3.80;;;;;;;12.39;100.00;101424.13;10508781;28;20041;-79
2024/03/09 00:22:13;;;;;;;4.80;4.07;;;;;;;12.46;100.00;101425.13;10493493;28;20047;-79
2024/03/09 00:27:35;;;;;;;3.03;1.60;;;;;;;12.64;100.00;101428.13;10507126;28;20135;-78
2024/03/09 00:33:00;;;;;;;2.00;1.48;;;;;;;12.87;100.00;101418.78;10478561;28;20048;-79
2024/03/09 00:38:24;;;;;;;2.55;1.58;;;;;;;13.02;100.00;101423.47;10521708;28;20122;-79
2024/03/09 00:43:47;;;;;;;2.75;1.42;;;;;;;13.15;100.00;101430.78;10483490;28;20135;-79
2024/03/09 00:49:13;;;;;;;4.95;1.35;;;;;;;13.14;100.00;101413.06;10506231;28;20092;-79
2024/03/09 00:54:37;;;;;;;2.90;1.23;;;;;;;13.30;100.00;101425.72;10493526;28;20058;-78
2024/03/09 01:00:00;;;;;;;3.50;1.27;;;;;;;13.36;100.00;101409.00;10508716;28;20522;-79
2024/03/09 01:05:26;;;;;;;1.83;1.25;;;;;;;13.30;100.00;101423.06;10478160;28;20140;-78
2024/03/09 01:10:48;;;;;;;14.45;11.30;;;;;;;13.09;100.00;101420.03;10478657;28;20547;-78
2024/03/09 01:16:12;;;;;;;2.83;2.17;;;;;;;13.06;100.00;101417.34;10477926;28;20063;-79
2024/03/09 01:21:36;;;;;;;4.97;2.03;;;;;;;13.30;100.00;101419.53;10476709;28;20049;-79
2024/03/09 01:26:59;;;;;;;4.07;3.28;;;;;;;13.33;100.00;101424.84;10484267;28;20068;-79
2024/03/09 01:32:22;;;;;;;8.45;7.57;;;;;;;13.25;100.00;101423.88;10473249;28;20451;-79
2024/03/09 01:37:48;;;;;;;4.55;2.35;;;;;;;13.18;100.00;101417.59;10502496;28;20060;-78
2024/03/09 01:43:10;;;;;;;5.10;1.40;;;;;;;13.00;100.00;101422.53;10490154;28;20080;-79
2024/03/09 01:48:33;;;;;;;4.78;1.98;;;;;;;12.96;100.00;101423.34;10489960;28;20040;-79
2024/03/09 01:53:58;;;;;;;3.60;2.28;;;;;;;12.62;100.00;101416.59;10477170;28;20591;-79
2024/03/09 01:59:23;;;;;;;6.70;3.67;;;;;;;12.68;100.00;101412.28;10485591;28;20051;-79
2024/03/09 02:04:46;;;;;;;2.35;1.58;;;;;;;12.66;100.00;101419.34;10504728;28;20040;-79
2024/03/09 02:10:13;;;;;;;8.48;3.13;;;;;;;12.58;100.00;101420.94;10476503;28;20056;-79
2024/03/09 02:15:36;;;;;;;6.57;3.60;;;;;;;12.29;100.00;101417.75;10503690;28;20400;-79
2024/03/09 02:21:00;;;;;;;7.97;4.63;;;;;;;12.40;100.00;101417.97;10515618;28;20059;-79
2024/03/09 02:26:25;;;;;;;7.75;5.00;;;;;;;12.35;100.00;101422.28;10486899;28;20405;-79
2024/03/09 02:31:49;;;;;;;7.05;3.13;;;;;;;12.37;100.00;101410.84;10490919;28;20094;-79
2024/03/09 02:37:13;;;;;;;6.40;2.97;;;;;;;12.56;100.00;101413.84;10510152;28;20048;-79
2024/03/09 02:42:39;;;;;;;9.05;4.40;;;;;;;12.41;100.00;101408.25;10495975;28;20055;-80
2024/03/09 02:48:02;;;;;;;8.35;4.78;;;;;;;11.94;100.00;101425.03;10510686;28;20056;-78
2024/03/09 02:53:25;;;;;;;7.28;4.18;;;;;;;11.62;100.00;101425.16;10500320;28;20052;-78
2024/03/09 02:58:50;;;;;;;7.82;7.05;;;;;;;11.67;100.00;101408.53;10497531;28;20059;-79
2024/03/09 03:04:13;;;;;;;21.27;19.20;;;;;;;11.41;100.00;101420.28;10490856;28;20054;-79
2024/03/09 03:09:35;;;;;;;10.23;9.32;;;;;;;11.13;100.00;101422.28;10490031;28;20044;-79
2024/03/09 03:15:01;;;;;;;9.48;6.63;;;;;;;11.18;100.00;101427.66;10497235;28;20033;-79
2024/03/09 03:20:25;;;;;;;9.80;8.77;;;;;;;10.83;100.00;101431.22;10491441;28;20510;-79
2024/03/09 03:25:47;;;;;;;7.43;4.70;;;;;;;10.70;100.00;101425.59;10524554;28;20052;-79
2024/03/09 03:31:12;;;;;;;6.13;4.80;;;;;;;10.79;100.00;101424.94;10497053;28;20546;-79
2024/03/09 03:36:37;;;;;;;6.97;5.22;;;;;;;10.85;100.00;101425.09;10489901;28;20106;-79
2024/03/09 03:42:00;;;;;;;10.50;7.05;;;;;;;10.38;100.00;101430.03;10496069;28;20144;-78
2024/03/09 03:47:24;;;;;;;9.23;5.93;;;;;;;10.62;100.00;101437.72;10481352;28;20145;-78
2024/03/09 03:52:47;;;;;;;10.38;5.43;;;;;;;10.76;100.00;101438.09;10496080;28;20091;-78
2024/03/09 03:58:09;;;;;;;11.25;6.97;;;;;;;10.43;100.00;101437.19;10457618;28;20543;-78
2024/03/09 04:03:33;;;;;;;9.95;7.35;;;;;;;10.41;100.00;101433.63;10481187;28;20045;-78
2024/03/09 04:08:57;;;;;;;14.95;11.93;;;;;;;10.53;100.00;101442.75;10495544;28;20081;-79
2024/03/09 04:14:20;;;;;;;12.27;10.50;;;;;;;10.35;100.00;101447.53;10463438;28;20075;-78
2024/03/09 04:19:44;;;;;;;15.55;13.93;;;;;;;10.49;100.00;101453.19;10479905;28;20466;-78
2024/03/09 04:25:08;;;;;;;12.73;10.73;;;;;;;10.57;100.00;101454.28;10493394;28;20512;-78
2024/03/09 04:30:33;;;;;;;9.30;7.85;;;;;;;10.47;100.00;101454.91;10494174;28;20044;-77
2024/03/09 04:35:57;;;;;;;9.68;5.60;;;;;;;10.30;100.00;101459.72;10494835;28;20155;-80
2024/03/09 04:41:19;;;;;;;8.40;5.05;;;;;;;10.54;100.00;101464.78;10488533;28;20052;-79
2024/03/09 04:46:42;;;;;;;10.27;5.78;;;;;;;11.02;100.00;101466.06;10482227;28;20041;-79
2024/03/09 04:52:06;;;;;;;8.90;5.80;;;;;;;11.14;100.00;101465.44;10480814;28;20053;-79
2024/03/09 04:57:35;;;;;;;7.40;4.93;;;;;;;11.16;100.00;101471.66;10492883;28;20051;-81
2024/03/09 05:02:57;;;;;;;;;;;;;;;11.30;100.00;101471.97;10493858;28;20144;-79
2024/03/09 05:08:21;;;;;;;8.48;5.47;;;;;;;11.24;100.00;101463.91;10479810;28;19921;-80
2024/03/09 05:13:44;;;;;;;6.20;4.88;;;;;;;11.36;100.00;101480.06;10492820;28;20139;-79
2024/03/09 05:19:07;;;;;;;6.93;5.28;;;;;;;11.26;100.00;101496.56;10513493;28;20102;-80
2024/03/09 05:24:31;;;;;;;10.85;5.50;;;;;;;11.56;100.00;101487.59;10491786;28;20075;-79
2024/03/09 05:29:55;;;;;;;5.82;5.00;;;;;;;11.96;100.00;101491.16;10478198;28;20056;-81
2024/03/09 05:35:20;;;;;;;7.80;4.90;;;;;;;12.25;100.00;101497.09;10518506;27;20067;-79
2024/03/09 05:40:44;;;;;;;6.95;4.63;;;;;;;12.47;100.00;101498.44;10505881;28;20388;-80
2024/03/09 05:46:07;;;;;;;8.32;5.03;;;;;;;12.75;100.00;101496.31;10505989;28;20076;-80
2024/03/09 05:51:31;;;;;;;6.70;4.82;;;;;;;13.12;100.00;101510.25;10491611;28;20041;-80
2024/03/09 05:56:55;;;;;;;7.75;4.80;;;;;;;13.89;100.00;101521.22;10478074;28;20066;-79
2024/03/09 06:02:17;;;;;;;9.50;4.55;;;;;;;13.84;100.00;101523.81;10476930;28;20056;-80
2024/03/09 06:07:41;;;;;;;5.78;4.25;;;;;;;14.05;100.00;101525.84;10477861;28;20071;-80
2024/03/09 06:13:05;;;;;;;6.25;4.05;;;;;;;16.20;100.00;101524.38;10491580;28;20110;-80
2024/03/09 06:18:27;;;;;;;5.72;4.20;;;;;;;16.17;100.00;101531.47;10477548;28;20044;-80
2024/03/09 06:23:50;;;;;;;6.03;4.30;;;;;;;15.50;100.00;101537.19;10476652;28;20056;-80
2024/03/09 06:29:14;;;;;;;5.38;4.22;;;;;;;15.07;100.00;101543.94;10477853;28;20056;-79
2024/03/09 06:34:42;;;;;;;5.57;4.38;;;;;;;17.48;100.00;101544.25;10528393;28;20762;-80
2024/03/09 06:40:05;;;;;;;;;;;;;;;18.96;100.00;101541.19;10499711;28;20052;-80
2024/03/09 06:45:29;;;;;;;4.97;2.28;;;;;;;22.08;66.88;101543.56;10497377;28;20346;-80
2024/03/09 06:50:52;;;;;;;4.03;1.85;;;;;;;23.44;51.92;101537.84;10458207;28;20033;-80
2024/03/09 06:56:17;;;;;;;3.42;2.53;;;;;;;21.34;63.46;101541.25;10485646;28;20054;-80
2024/03/09 07:01:41;;;;;;;4.75;2.13;;;;;;;24.69;47.12;101536.22;10493334;28;20049;-81
2024/03/09 07:07:04;;;;;;;4.03;1.85;;;;;;;25.08;43.57;101545.84;10511806;28;20139;-80
2024/03/09 07:12:27;;;;;;;5.80;2.50;;;;;;;24.49;44.57;101548.50;10496228;28;20071;-81
2024/03/09 07:17:53;;;;;;;3.00;1.92;;;;;;;25.90;39.52;101551.22;10481710;28;20656;-81
2024/03/09 07:23:16;;;;;;;7.80;3.03;;;;;;;26.46;38.40;101551.88;10487389;28;20056;-81
2024/03/09 07:28:39;;;;;;;12.25;7.68;;;;;;;28.89;34.42;101559.66;10464021;28;20040;-81
2024/03/09 07:34:03;;;;;;;2.45;1.30;;;;;;;26.77;36.44;101564.28;10497420;28;20090;-82
2024/03/09 07:39:25;;;;;;;3.22;1.90;;;;;;;26.38;37.27;101558.56;10493000;28;20138;-81
2024/03/09 07:44:48;;;;;;;4.38;1.60;;;;;;;23.89;41.81;101553.81;10492582;28;20405;-80
2024/03/09 07:50:15;;;;;;;6.93;1.95;;;;;;;27.44;35.82;101557.03;10494041;28;20052;-79
2024/03/09 07:55:37;;;;;;;8.38;5.45;;;;;;;30.68;31.55;101553.13;10493501;28;20078;-81
2024/03/09 08:01:05;;;;;;;6.22;4.72;;;;;;;32.14;29.74;101555.53;10473642;28;20060;-79
2024/03/09 08:06:29;;;;;;;2.63;1.65;;;;;;;30.60;29.89;101569.03;10492731;28;20488;-79
2024/03/09 08:11:52;;;;;;;4.20;1.50;;;;;;;28.73;32.08;101562.22;10480644;28;20548;-79
2024/03/09 08:17:15;;;;;;;9.57;4.40;;;;;;;30.56;29.69;101562.00;10467122;28;20134;-79
2024/03/09 08:22:40;;;;;;;4.43;2.03;;;;;;;29.97;29.89;101557.88;10439208;28;1483819;-78
2024/03/09 08:28:03;;;;;;;3.60;1.60;;;;;;;28.05;32.22;101555.31;10492386;28;20036;-81
2024/03/09 08:33:26;;;;;;;3.75;2.03;;;;;;;28.48;31.58;101559.75;10470906;28;20044;-80
2024/03/09 08:38:53;;;;;;;2.05;1.40;;;;;;;31.32;28.40;101557.69;10494978;28;20570;-80
2024/03/09 08:44:15;;;;;;;2.57;1.67;;;;;;;31.78;26.84;101560.44;10486839;28;20048;-81
2024/03/09 08:49:39;;;;;;;4.95;1.50;;;;;;;30.93;27.89;101543.56;10492144;28;20496;-81
2024/03/09 08:55:03;;;;;;;2.28;1.42;;;;;;;29.95;28.01;101548.91;10492017;28;20051;-80
2024/03/09 09:00:26;;;;;;;5.20;1.55;;;;;;;31.81;26.46;101544.78;10451938;28;20049;-80
2024/03/09 09:05:48;;;;;;;2.17;1.10;;;;;;;33.36;24.86;101567.72;10446516;28;20057;-80
2024/03/09 09:11:16;;;;;;;2.63;1.30;;;;;;;34.22;23.50;101560.88;10467506;28;20539;-79
2024/03/09 09:16:42;;;;;;;2.83;2.08;;;;;;;31.69;26.25;101559.16;10478459;28;20080;-80
2024/03/09 09:22:06;;;;;;;2.85;2.20;;;;;;;30.45;27.87;101567.13;10506409;28;20538;-81
2024/03/09 09:27:30;;;;;;;4.70;1.63;;;;;;;31.18;26.54;101563.06;10478205;28;20048;-82
2024/03/09 09:32:53;;;;;;;3.22;1.55;;;;;;;31.86;26.58;101561.75;10491931;28;20052;-83
2024/03/09 09:38:17;;;;;;;4.47;1.60;;;;;;;32.73;25.04;101559.09;10490796;28;20037;-82
2024/03/09 09:43:42;;;;;;;2.08;1.60;;;;;;;32.01;25.13;101552.63;10492033;28;20063;-81
2024/03/09 09:49:08;;;;;;;3.15;1.80;;;;;;;32.61;24.84;101558.00;10520913;28;20519;-81
2024/03/09 09:54:31;;;;;;;3.83;2.10;;;;;;;32.27;25.45;101548.31;10481135;28;20045;-81
2024/03/09 09:59:56;;;;;;;4.82;2.17;;;;;;;31.54;26.04;101539.06;10479373;28;20058;-80
2024/03/09 10:05:18;;;;;;;3.05;2.60;;;;;;;28.19;29.21;101538.44;10491506;28;20056;-80
2024/03/09 10:10:43;;;;;;;3.80;2.80;;;;;;;28.08;29.83;101527.16;10474024;28;20080;-80
2024/03/09 10:16:08;;;;;;;3.92;2.58;;;;;;;27.65;30.12;101509.16;10478268;28;20140;-81
2024/03/09 10:21:33;;;;;;;5.13;3.15;;;;;;;26.28;32.46;101519.19;10477508;28;20143;-80
2024/03/09 10:26:56;;;;;;;4.50;2.72;;;;;;;27.15;31.48;101509.44;10436283;28;20049;-80
2024/03/09 10:32:22;;;;;;;5.78;2.63;;;;;;;29.37;29.02;101501.13;10464344;28;20405;-81
2024/03/09 10:37:45;;;;;;;3.50;2.80;;;;;;;29.42;29.20;101499.03;10503694;28;20476;-80
2024/03/09 10:43:11;;;;;;;3.88;2.53;;;;;;;29.04;29.66;101487.34;10484715;28;20087;-81
2024/03/09 10:48:38;;;;;;;5.00;2.90;;;;;;;28.77;29.77;101485.00;10510086;28;20049;-81
2024/03/09 10:54:13;;;;;;;6.57;4.50;;;;;;;26.14;33.56;101479.94;10500196;28;20044;-81
2024/03/09 10:59:41;;;;;;;5.95;2.70;;;;;;;25.47;34.05;101477.88;10478092;28;20051;-80
2024/03/09 11:05:08;;;;;;;5.28;3.38;;;;;;;23.59;38.17;101468.31;10492087;28;20045;-78
2024/03/09 11:10:30;;;;;;;9.83;3.50;;;;;;;22.58;38.87;101467.16;10501599;28;20496;-81
2024/03/09 11:15:55;;;;;;;5.35;2.47;;;;;;;23.26;38.34;101476.31;10490425;28;20385;-79
2024/03/09 11:21:29;;;;;;;3.30;2.15;;;;;;;25.41;34.70;101466.31;10493939;28;20040;-84
2024/03/09 11:26:52;;;;;;;39.70;26.77;;;;;;;26.25;34.03;101463.34;10496004;28;20045;-80
2024/03/09 11:32:16;;;;;;;5.00;4.10;;;;;;;26.08;34.10;101454.94;10494240;28;20044;-80
2024/03/09 11:37:50;;;;;;;3.08;1.95;;;;;;;24.57;36.18;101451.09;10494475;28;20736;-80
2024/03/09 11:43:14;;;;;;;3.83;2.63;;;;;;;24.58;36.31;101432.13;10479821;28;20053;-79
2024/03/09 11:48:37;;;;;;;2.97;1.77;;;;;;;23.94;35.91;101435.88;10496202;28;20056;-79
2024/03/09 11:54:03;;;;;;;3.92;2.40;;;;;;;22.46;37.99;101440.53;10494032;28;20045;-80
2024/03/09 11:59:26;;;;;;;5.35;2.40;;;;;;;22.15;39.15;101433.13;10506913;28;20053;-79
2024/03/09 12:04:49;;;;;;;3.28;2.35;;;;;;;21.69;40.05;101432.25;10495150;28;20139;-83
2024/03/09 12:10:14;;;;;;;2.67;2.03;;;;;;;21.45;40.17;101425.56;10482416;28;20052;-84
2024/03/09 12:15:39;;;;;;;3.70;2.00;;;;;;;21.25;41.09;101439.34;10495300;28;20045;-83
2024/03/09 12:21:02;;;;;;;3.45;2.00;;;;;;;21.47;41.97;101427.28;10468531;28;20055;-81
2024/03/09 12:26:27;;;;;;;3.20;1.88;;;;;;;21.30;42.08;101434.78;10490478;28;20053;-79
2024/03/09 12:31:51;;;;;;;4.63;1.90;;;;;;;20.89;43.22;101431.84;10482153;28;20044;-82
2024/03/09 12:37:24;;;;;;;2.58;2.25;;;;;;;20.96;43.05;101438.91;10476503;28;20404;-79
2024/03/09 12:42:48;;;;;;;4.60;1.80;;;;;;;20.61;42.89;101429.59;10489319;28;20051;-79
2024/03/09 12:48:11;;;;;;;3.33;1.83;;;;;;;20.69;42.62;101421.44;10479326;28;20101;-80
2024/03/09 12:53:35;;;;;;;4.68;2.50;;;;;;;20.81;42.07;101429.28;10520737;28;20391;-79
2024/03/09 12:59:00;;;;;;;3.45;2.20;;;;;;;20.65;43.20;101434.03;10464343;28;20052;-79
2024/03/09 13:04:24;;;;;;;2.50;2.05;;;;;;;20.75;43.38;101423.13;10510846;28;20048;-79
2024/03/09 13:09:47;;;;;;;2.78;2.05;;;;;;;20.50;43.13;101423.50;10491223;28;20069;-78
2024/03/09 13:15:15;;;;;;;5.63;1.90;;;;;;;20.39;44.06;101421.91;10491312;28;20056;-79
2024/03/09 13:20:38;;;;;;;2.70;2.25;;;;;;;20.49;45.09;101424.41;10476760;28;20037;-79
2024/03/09 13:26:00;;;;;;;2.53;1.92;;;;;;;20.30;45.32;101418.41;10475995;28;20044;-79
2024/03/09 13:31:27;;;;;;;3.03;2.55;;;;;;;20.08;45.83;101410.69;10473452;28;20037;-77
2024/03/09 13:36:50;;;;;;;4.78;2.67;;;;;;;19.90;47.40;101420.72;10482451;28;20056;-79
2024/03/09 13:42:14;;;;;;;4.80;2.15;;;;;;;19.83;48.87;101415.44;10497455;28;20071;-79
2024/03/09 13:47:39;;;;;;;3.17;2.28;;;;;;;20.12;48.50;101420.44;10472427;28;20044;-78
2024/03/09 13:53:04;;;;;;;4.97;3.10;;;;;;;20.20;48.78;101427.50;10494417;28;20055;-79
2024/03/09 13:58:26;;;;;;;4.22;2.10;;;;;;;20.16;48.67;101417.69;10475102;28;20044;-79
2024/03/09 14:03:51;;;;;;;5.18;2.22;;;;;;;19.65;48.38;101415.66;10488898;28;20447;-81
2024/03/09 14:09:14;;;;;;;3.35;1.73;;;;;;;19.33;49.68;101411.50;10491025;28;20467;-80
2024/03/09 14:14:38;;;;;;;8.25;2.80;;;;;;;19.36;50.86;101413.28;10497577;28;20366;-77
2024/03/09 14:20:16;;;;;;;4.18;2.20;;;;;;;19.07;52.12;101425.13;10486734;28;20036;-78
2024/03/09 14:25:38;;;;;;;4.70;2.30;;;;;;;18.70;54.01;101426.31;10484397;28;20067;-79
2024/03/09 14:31:00;;;;;;;6.68;3.88;;;;;;;18.66;55.22;101429.91;10506483;28;20102;-79
2024/03/09 14:36:24;;;;;;;5.57;2.50;;;;;;;18.71;55.75;101425.41;10473982;28;20033;-78
2024/03/09 14:41:48;;;;;;;4.43;2.30;;;;;;;18.41;55.61;101433.59;10487471;28;20078;-78
2024/03/09 14:47:10;;;;;;;3.78;3.17;;;;;;;18.13;55.91;101436.41;10501193;28;20055;-78
2024/03/09 14:52:34;;;;;;;4.88;3.35;;;;;;;17.79;55.68;101448.09;10520623;28;20044;-78
2024/03/09 14:57:58;;;;;;;5.55;3.60;;;;;;;17.61;55.77;101442.81;10481643;28;20045;-78
2024/03/09 15:03:32;;;;;;;3.45;3.13;;;;;;;17.58;55.45;101442.81;10481240;28;20507;-78
2024/03/09 15:08:57;;;;;;;2.75;2.55;;;;;;;17.54;57.17;101441.91;10495266;28;20094;-78
2024/03/09 15:14:22;;;;;;;4.85;2.25;;;;;;;17.50;57.55;101446.38;10482336;28;20063;-78
2024/03/09 15:19:44;;;;;;;5.43;4.68;;;;;;;17.39;58.68;101448.16;10483375;28;20040;-78
2024/03/09 15:25:13;;;;;;;4.22;2.70;;;;;;;17.76;58.59;101448.13;10480935;28;20141;-78
2024/03/09 15:30:35;;;;;;;3.85;3.15;;;;;;;17.68;61.42;101439.25;10496614;28;20041;-79
2024/03/09 15:35:58;;;;;;;3.63;2.75;;;;;;;17.51;64.93;101447.28;10482783;28;20055;-79
2024/03/09 15:41:22;;;;;;;5.07;3.72;;;;;;;17.56;66.12;101447.25;10482364;28;20048;-78
2024/03/09 15:46:45;;;;;;;7.97;5.35;;;;;;;17.48;67.44;101440.16;10481243;28;20105;-78
2024/03/09 15:52:13;;;;;;;4.25;3.38;;;;;;;17.29;70.32;101446.41;10510312;28;20053;-78
2024/03/09 15:57:37;;;;;;;7.85;4.00;;;;;;;16.99;73.14;101441.97;10520280;28;20069;-78
2024/03/09 16:03:00;;;;;;;6.07;4.60;;;;;;;16.87;75.47;101457.94;10496801;28;20401;-78
2024/03/09 16:08:23;;;;;;;15.32;10.00;;;;;;;16.69;78.12;101447.25;10523247;28;20123;-78
2024/03/09 16:13:49;;;;;;;6.07;3.85;;;;;;;16.37;82.12;101446.28;10479680;28;20056;-78
2024/03/09 16:19:11;;;;;;;4.57;4.18;;;;;;;15.92;87.08;101450.56;10471013;28;20086;-79
2024/03/09 16:24:34;;;;;;;4.57;4.05;;;;;;;15.62;90.38;101455.72;10484049;28;20064;-79
2024/03/09 16:30:00;;;;;;;9.30;5.60;;;;;;;15.28;94.60;101446.59;10476226;28;20066;-78
2024/03/09 16:35:30;;;;;;;3.33;3.03;;;;;;;15.18;96.50;101458.00;10478697;28;20373;-79
2024/03/09 16:40:55;;;;;;;7.80;5.80;;;;;;;15.02;98.95;101455.25;10509661;28;20052;-80
2024/03/09 16:46:20;;;;;;;16.08;13.85;;;;;;;14.71;100.00;101454.06;10475196;28;20048;-78
2024/03/09 16:51:44;;;;;;;43.10;26.20;;;;;;;14.52;100.00;101464.47;10486099;28;20048;-77
2024/03/09 16:57:07;;;;;;;60.65;34.88;;;;;;;14.39;100.00;101468.75;10473807;28;20491;-79
2024/03/09 17:02:31;;;;;;;37.03;27.05;;;;;;;14.13;100.00;101470.19;10471681;28;20045;-79
2024/03/09 17:07:54;;;;;;;27.90;22.67;;;;;;;13.89;100.00;101465.47;10483507;28;20032;-76
2024/03/09 17:13:16;;;;;;;18.90;14.70;;;;;;;13.67;100.00;101463.38;10472664;28;20059;-77
2024/03/09 17:18:40;;;;;;;16.83;12.00;;;;;;;13.53;100.00;101471.13;10488158;28;20522;-79
2024/03/09 17:24:05;;;;;;;14.07;10.20;;;;;;;13.31;100.00;101469.94;10475378;28;20060;-79
2024/03/09 17:29:31;;;;;;;9.95;6.40;;;;;;;13.07;100.00;101485.38;10489255;28;20079;-79
2024/03/09 17:34:57;;;;;;;9.27;7.10;;;;;;;13.13;100.00;101473.16;10476050;28;20071;-79
2024/03/09 17:40:19;;;;;;;16.77;10.65;;;;;;;13.11;100.00;101473.97;10477864;28;20117;-81
2024/03/09 17:45:42;;;;;;;12.75;11.27;;;;;;;13.20;100.00;101478.56;10476772;28;20055;-82
2024/03/09 17:51:06;;;;;;;14.30;12.88;;;;;;;13.14;100.00;101480.25;10477890;28;20041;-83
2024/03/09 17:56:29;;;;;;;7.80;6.95;;;;;;;13.16;100.00;101486.47;10491652;28;20048;-80
2024/03/09 18:01:53;;;;;;;32.78;15.98;;;;;;;13.22;100.00;101480.38;10484625;28;20049;-83
2024/03/09 18:07:17;;;;;;;32.63;21.27;;;;;;;12.95;100.00;101488.72;10480851;28;20471;-82
2024/03/09 18:12:39;;;;;;;8.82;6.63;;;;;;;12.42;100.00;101487.72;10490778;28;20044;-83
2024/03/09 18:18:05;;;;;;;8.60;6.53;;;;;;;12.32;100.00;101485.78;10519491;28;20045;-82
2024/03/09 18:23:30;;;;;;;10.70;9.70;;;;;;;12.13;100.00;101491.56;10465657;28;20143;-80
2024/03/09 18:28:53;;;;;;;5.57;5.00;;;;;;;11.99;100.00;101480.66;10484472;28;20139;-80
2024/03/09 18:34:16;;;;;;;5.57;4.45;;;;;;;12.01;100.00;101484.25;10483515;28;20486;-80
2024/03/09 18:39:40;;;;;;;15.73;14.43;;;;;;;11.87;100.00;101485.69;10481943;28;20049;-79
2024/03/09 18:45:03;;;;;;;17.00;15.43;;;;;;;11.67;100.00;101487.88;10477229;28;20052;-81
2024/03/09 18:50:26;;;;;;;8.68;5.95;;;;;;;11.70;100.00;101493.22;10496587;28;20068;-81
2024/03/09 18:55:50;;;;;;;7.65;5.60;;;;;;;12.16;100.00;101494.25;10496854;28;20507;-83
2024/03/09 19:01:13;;;;;;;34.88;31.38;;;;;;;11.90;100.00;101505.16;10523480;28;20052;-83
2024/03/09 19:06:36;;;;;;;7.55;5.40;;;;;;;11.71;100.00;101513.53;10493848;28;20052;-85
2024/03/09 19:12:00;;;;;;;4.65;3.72;;;;;;;11.66;100.00;101506.34;10484092;28;20403;-82
2024/03/09 19:17:23;;;;;;;4.88;4.20;;;;;;;11.74;100.00;101500.41;10497598;28;20041;-83
2024/03/09 19:22:46;;;;;;;5.57;4.97;;;;;;;11.77;100.00;101497.81;10486092;28;20557;-82
2024/03/09 19:28:11;;;;;;;5.40;4.22;;;;;;;11.79;100.00;101488.19;10485757;28;20041;-80
2024/03/09 19:33:35;;;;;;;5.10;3.83;;;;;;;12.06;100.00;101482.59;10514466;28;20496;-83
2024/03/09 19:38:59;;;;;;;6.25;4.60;;;;;;;11.92;100.00;101490.22;10499703;28;20041;-83
2024/03/09 19:44:23;;;;;;;5.65;4.78;;;;;;;11.65;100.00;101496.63;10486007;28;20049;-81
2024/03/09 19:49:48;;;;;;;12.45;4.63;;;;;;;11.62;100.00;101499.22;10528669;28;20036;-88
2024/03/09 19:55:12;;;;;;;5.82;5.15;;;;;;;11.71;100.00;101502.03;10464475;28;20080;-84
2024/03/09 20:00:37;;;;;;;5.80;5.00;;;;;;;11.74;100.00;101496.88;10498492;28;20048;-83
2024/03/09 20:06:02;;;;;;;6.70;5.43;;;;;;;11.68;100.00;101505.53;10497973;28;20079;-82
2024/03/09 20:11:25;;;;;;;5.45;4.68;;;;;;;11.79;100.00;101506.69;10498312;28;20052;-80
2024/03/09 20:16:51;;;;;;;8.77;4.53;;;;;;;11.76;100.00;101503.97;10499657;28;20048;-82
2024/03/09 20:22:14;;;;;;;5.65;4.60;;;;;;;11.82;100.00;101503.19;10494013;28;20057;-83
2024/03/09 20:27:37;;;;;;;7.65;5.78;;;;;;;11.84;100.00;101509.44;10508123;28;20052;-85
2024/03/09 20:33:02;;;;;;;5.95;5.20;;;;;;;11.73;100.00;101518.84;10481127;28;20072;-84
2024/03/09 20:38:25;;;;;;;6.45;4.80;;;;;;;11.78;100.00;101518.13;10480568;28;20549;-81
2024/03/09 20:43:47;;;;;;;10.48;7.10;;;;;;;11.90;100.00;101528.97;10489331;28;20135;-80
2024/03/09 20:49:13;;;;;;;8.45;5.90;;;;;;;11.82;100.00;101529.66;10475200;28;20048;-81
2024/03/09 20:54:40;;;;;;;5.40;4.63;;;;;;;11.73;100.00;101535.63;10490724;28;20059;-80
2024/03/09 21:00:09;;;;;;;6.55;4.50;;;;;;;11.66;100.00;101536.31;10473162;28;20052;-80
2024/03/09 21:05:39;;;;;;;6.18;5.00;;;;;;;11.58;100.00;101533.50;10478220;28;20393;-80
2024/03/09 21:11:07;;;;;;;6.95;5.28;;;;;;;11.44;100.00;101536.66;10504855;28;20064;-81
2024/03/09 21:16:31;;;;;;;5.82;4.78;;;;;;;11.52;100.00;101527.16;10505137;28;20106;-80
2024/03/09 21:21:55;;;;;;;7.57;4.93;;;;;;;11.63;100.00;101516.84;10491592;28;20068;-81
2024/03/09 21:27:18;;;;;;;7.28;5.32;;;;;;;11.74;100.00;101508.34;10491864;28;20139;-81
2024/03/09 21:32:42;;;;;;;6.07;5.18;;;;;;;11.75;100.00;101518.03;10519014;28;20048;-81
2024/03/09 21:38:08;;;;;;;6.15;5.30;;;;;;;11.75;100.00;101517.19;10493530;28;20063;-81
2024/03/09 21:43:31;;;;;;;7.22;4.65;;;;;;;11.71;100.00;101512.63;10491790;28;20048;-80
2024/03/09 21:48:55;;;;;;;5.07;4.57;;;;;;;11.65;100.00;101513.38;10464720;28;20053;-81
2024/03/09 21:54:22;;;;;;;5.68;4.10;;;;;;;11.72;100.00;101510.03;10478295;28;20385;-81
2024/03/09 21:59:45;;;;;;;5.10;4.10;;;;;;;11.85;100.00;101516.50;10495345;28;20132;-81
2024/03/09 22:05:07;;;;;;;4.95;4.45;;;;;;;11.89;100.00;101513.06;10480917;28;20045;-81
2024/03/09 22:10:31;;;;;;;5.75;4.38;;;;;;;11.96;100.00;101523.81;10476487;28;20055;-81
2024/03/09 22:15:54;;;;;;;7.05;4.82;;;;;;;12.16;100.00;101531.28;10491006;28;20053;-81
2024/03/09 22:21:18;;;;;;;5.35;4.85;;;;;;;12.05;100.00;101530.19;10492137;28;20052;-81
2024/03/09 22:26:44;;;;;;;4.95;4.18;;;;;;;12.08;100.00;101527.63;10479225;28;20060;-81
2024/03/09 22:32:07;;;;;;;4.70;4.20;;;;;;;12.17;100.00;101525.16;10478022;28;20102;-81
2024/03/09 22:37:29;;;;;;;6.03;4.68;;;;;;;12.11;100.00;101527.66;10477422;28;20044;-81
2024/03/09 22:42:53;;;;;;;7.82;4.55;;;;;;;12.06;100.00;101517.00;10491715;28;20475;-80
2024/03/09 22:48:16;;;;;;;7.75;4.75;;;;;;;12.10;100.00;101508.25;10490460;28;20049;-82
2024/03/09 22:53:40;;;;;;;4.57;4.07;;;;;;;12.06;100.00;101509.06;10519301;28;20106;-81
2024/03/09 22:59:04;;;;;;;6.55;4.57;;;;;;;12.11;100.00;101503.84;10501270;28;20052;-81
2024/03/09 23:04:27;;;;;;;10.50;5.80;;;;;;;12.00;100.00;101506.28;10517879;28;20090;-81
2024/03/09 23:09:50;;;;;;;13.93;10.15;;;;;;;12.07;100.00;101507.31;10476516;28;20052;-81
2024/03/09 23:15:15;;;;;;;8.52;7.57;;;;;;;12.18;100.00;101511.97;10496041;28;20202;-82
2024/03/09 23:20:40;;;;;;;8.88;6.75;;;;;;;12.14;100.00;101504.78;10496945;28;20186;-81
2024/03/09 23:26:03;;;;;;;5.68;5.03;;;;;;;12.13;100.00;101505.69;10496777;28;20573;-81
2024/03/09 23:31:29;;;;;;;7.97;5.20;;;;;;;12.09;100.00;101505.56;10497548;28;20045;-82
2024/03/09 23:36:52;;;;;;;5.22;4.72;;;;;;;12.03;100.00;101500.13;10494469;28;20063;-81
2024/03/09 23:42:16;;;;;;;7.75;4.57;;;;;;;12.15;100.00;101501.28;10496906;28;20435;-82
2024/03/09 23:47:45;;;;;;;5.28;4.40;;;;;;;12.06;100.00;101502.88;10494049;28;20055;-81
2024/03/09 23:53:11;;;;;;;8.07;4.67;;;;;;;12.01;100.00;101497.50;10497279;28;20056;-81
2024/03/09 23:58:35;;;;;;;6.22;4.55;;;;;;;11.92;100.00;101499.91;10498394;28;20060;-82
